createdAt,value
2017-06-25T12:27:02.578Z,25664
2017-06-25T12:29:36.092Z,22048
2017-06-25T12:30:49.310Z,19712
2017-06-25T12:32:02.571Z,21056
2017-06-25T12:33:15.779Z,17504
2017-06-25T12:34:52.036Z,29440
2017-06-25T12:36:04.759Z,27520
2017-06-25T12:37:30.711Z,27584
2017-06-25T12:38:43.959Z,12052
2017-06-25T12:39:57.189Z,11228
2017-06-25T12:42:26.352Z,26976
2017-06-25T12:44:10.763Z,29920
2017-06-25T12:45:54.642Z,30176
2017-06-25T12:47:07.898Z,29728
2017-06-25T12:48:20.624Z,12408
2017-06-25T12:49:33.883Z,12364
2017-06-25T12:50:46.622Z,29120
2017-06-25T12:54:53.361Z,36800
2017-06-25T12:56:06.066Z,25952
2017-06-25T12:57:19.295Z,37664
2017-06-25T13:00:03.211Z,22752
2017-06-25T13:01:42.832Z,24224
2017-06-25T13:02:56.049Z,26048
2017-06-25T13:04:08.793Z,25568
2017-06-25T13:05:22.029Z,24096
2017-06-25T13:06:53.073Z,20736
2017-06-25T13:10:05.749Z,24832
2017-06-25T13:12:24.674Z,22560
2017-06-25T13:16:31.337Z,19776
2017-06-25T13:21:01.560Z,65824
2017-06-25T13:22:52.425Z,27680
2017-06-25T19:12:53.076Z,17760
2017-06-25T19:17:07.879Z,18656
2017-06-25T19:18:21.101Z,18688
2017-06-25T19:22:01.040Z,17248
2017-06-25T19:25:33.525Z,15136
2017-06-25T19:26:46.813Z,14656
2017-06-25T19:28:21.679Z,13552
2017-06-25T19:30:02.101Z,12968
2017-06-25T19:31:15.340Z,12268
2017-06-25T19:33:19.144Z,10504
2017-06-25T19:34:32.356Z,9380
2017-06-25T19:37:41.931Z,8896
2017-06-25T19:40:05.203Z,7304
2017-06-25T19:41:45.625Z,8688
2017-06-25T19:44:44.327Z,7708
2017-06-25T19:45:58.920Z,7920
2017-06-25T19:50:32.855Z,7096
2017-06-25T19:51:45.599Z,6744
2017-06-25T19:54:12.798Z,5768
2017-06-25T19:56:46.975Z,4968
2017-06-25T19:58:42.995Z,4236
2017-06-25T20:13:48.926Z,2300
2017-06-25T20:16:54.799Z,1920
2017-06-25T20:19:19.530Z,1628
2017-06-25T20:20:40.986Z,1460
2017-06-25T20:21:58.055Z,1304
2017-06-25T20:24:09.714Z,1076
2017-06-25T20:26:56.995Z,836
2017-06-25T20:32:56.525Z,392
2017-06-25T20:37:45.555Z,176
2017-06-25T20:42:49.584Z,68
2017-06-25T20:44:22.472Z,48
2017-06-25T20:46:43.501Z,32
2017-06-25T20:47:56.711Z,20
2017-06-25T20:49:08.914Z,16
2017-06-25T20:50:22.769Z,12
2017-06-25T20:51:35.482Z,8
2017-06-25T20:52:48.716Z,4
2017-06-25T20:54:32.595Z,4
2017-06-25T20:55:45.803Z,0
2017-06-25T20:56:58.523Z,0
2017-06-25T20:58:11.718Z,4
2017-06-25T20:59:24.936Z,0
2017-06-25T21:00:38.189Z,0
2017-06-25T21:01:51.039Z,0
2017-06-25T21:03:03.766Z,0
2017-06-25T21:04:16.651Z,0
2017-06-25T21:05:29.893Z,0
2017-06-25T21:06:43.113Z,0
2017-06-25T21:07:56.340Z,0
2017-06-25T21:09:09.576Z,0
2017-06-25T21:10:22.295Z,0
2017-06-25T21:11:35.526Z,0
2017-06-25T21:12:48.701Z,0
2017-06-25T21:14:01.943Z,0
2017-06-25T21:15:14.153Z,0
2017-06-25T21:16:26.863Z,0
2017-06-25T21:17:40.082Z,0
2017-06-25T21:20:42.760Z,0
2017-06-25T21:22:27.176Z,0
2017-06-25T21:23:39.899Z,0
2017-06-25T21:25:11.359Z,0
2017-06-25T21:26:55.788Z,0
2017-06-25T21:29:05.272Z,0
2017-06-25T21:31:04.189Z,0
2017-06-25T21:32:16.368Z,0
2017-06-25T21:33:29.590Z,0
2017-06-25T21:34:42.833Z,0
2017-06-25T21:35:55.030Z,0
2017-06-25T21:37:07.886Z,0
2017-06-25T21:38:20.602Z,0
2017-06-25T21:39:33.825Z,0
2017-06-25T21:40:47.032Z,0
2017-06-25T21:42:00.229Z,0
2017-06-25T21:43:13.458Z,0
2017-06-25T21:44:26.671Z,0
2017-06-25T21:46:10.556Z,0
2017-06-25T21:47:23.797Z,0
2017-06-25T21:48:36.523Z,0
2017-06-25T21:49:49.853Z,0
2017-06-25T21:51:03.117Z,0
2017-06-25T21:52:15.778Z,0
2017-06-25T21:54:00.156Z,0
2017-06-25T21:55:12.882Z,0
2017-06-25T21:56:26.125Z,0
2017-06-25T21:57:39.324Z,0
2017-06-25T21:58:52.532Z,0
2017-06-25T22:00:05.241Z,0
2017-06-25T22:01:17.985Z,0
2017-06-25T22:02:30.714Z,0
2017-06-25T22:03:43.946Z,0
2017-06-25T22:04:56.659Z,0
2017-06-25T22:06:09.331Z,0
2017-06-25T22:07:22.590Z,0
2017-06-25T22:08:35.320Z,0
2017-06-25T22:09:48.559Z,0
2017-06-25T22:11:01.256Z,0
2017-06-25T22:12:13.955Z,0
2017-06-25T22:13:27.186Z,0
2017-06-25T22:14:40.440Z,0
2017-06-25T22:15:53.660Z,0
2017-06-25T22:17:06.848Z,0
2017-06-25T22:18:20.083Z,0
2017-06-25T22:19:33.327Z,0
2017-06-25T22:20:46.560Z,0
2017-06-25T22:21:59.808Z,0
2017-06-25T22:23:12.051Z,0
2017-06-25T22:24:25.302Z,0
2017-06-25T22:25:38.511Z,0
2017-06-25T22:26:51.753Z,0
2017-06-25T22:28:04.974Z,0
2017-06-25T22:29:18.215Z,0
2017-06-25T22:30:31.455Z,0
2017-06-25T22:31:43.650Z,0
2017-06-25T22:32:56.911Z,0
2017-06-25T22:35:11.961Z,0
2017-06-25T22:36:24.165Z,0
2017-06-25T22:37:36.903Z,0
2017-06-25T22:38:50.128Z,0
2017-06-25T22:40:02.834Z,0
2017-06-25T22:41:16.045Z,0
2017-06-25T22:42:28.757Z,0
2017-06-25T22:44:12.660Z,0
2017-06-25T22:45:25.383Z,0
2017-06-25T22:46:38.609Z,0
2017-06-25T22:47:51.859Z,0
2017-06-25T22:49:04.708Z,0
2017-06-25T22:50:49.087Z,0
2017-06-25T22:52:02.268Z,0
2017-06-25T22:53:15.603Z,0
2017-06-25T22:54:28.907Z,0
2017-06-25T22:57:57.710Z,0
2017-06-25T22:59:10.428Z,0
2017-06-25T23:00:23.657Z,0
2017-06-25T23:01:36.867Z,0
2017-06-25T23:02:50.092Z,0
2017-06-25T23:04:03.316Z,0
2017-06-25T23:05:16.554Z,0
2017-06-25T23:06:29.956Z,0
2017-06-25T23:07:43.184Z,0
2017-06-25T23:08:56.394Z,0
2017-06-25T23:10:09.558Z,0
2017-06-25T23:11:22.786Z,0
2017-06-25T23:12:35.989Z,0
2017-06-25T23:13:49.328Z,0
2017-06-25T23:15:02.023Z,0
2017-06-25T23:16:14.720Z,0
2017-06-25T23:17:27.931Z,0
2017-06-25T23:18:41.315Z,0
2017-06-25T23:21:38.873Z,0
2017-06-25T23:22:52.127Z,0
2017-06-25T23:24:05.357Z,0
2017-06-25T23:25:18.554Z,0
2017-06-25T23:26:31.936Z,0
2017-06-25T23:27:44.644Z,0
2017-06-25T23:30:41.355Z,0
2017-06-25T23:31:54.560Z,0
2017-06-25T23:33:37.910Z,0
2017-06-25T23:34:51.133Z,0
2017-06-25T23:36:04.376Z,0
2017-06-25T23:37:17.610Z,0
2017-06-25T23:38:30.837Z,0
2017-06-25T23:39:43.557Z,0
2017-06-25T23:40:56.781Z,0
2017-06-25T23:42:41.167Z,0
2017-06-25T23:43:54.361Z,0
2017-06-25T23:45:38.758Z,0
2017-06-25T23:46:51.970Z,0
2017-06-25T23:48:03.654Z,0
2017-06-25T23:49:16.364Z,0
2017-06-25T23:50:29.605Z,0
2017-06-25T23:51:42.857Z,0
2017-06-25T23:52:56.066Z,0
2017-06-25T23:54:09.302Z,0
2017-06-25T23:55:22.065Z,0
2017-06-25T23:56:35.256Z,0
2017-06-25T23:57:48.498Z,0
2017-06-25T23:59:01.759Z,0
